Fertility, Pennsylvania
Current Conditions -  °F | °C
As of 10:53 AM on Saturday 20 Dec 2014 (Local Time) from KLNS Reporting Station
Overcast Overcast  
Wind Chill: 27°   Ceiling: 2900
Heat Index: 32°   Visibility: 10mi
Dew Point: 20°   Wind: 5mph
Humidity: 61%   Direction: 40°NE
Pressure: 30.29"   Gusts: NA
Location:  40.0158°N, 76.2452°W
Report Text: KLNS 201553Z 04004KT 10SM OVC029 00/M07 A3029 RMK AO2 SLP261 T00001067
Loading
Personal Weather Stations






























Interactive Weather Map New forecast layout! Learn more

10-Day Weather Forecast

Advertisements
Track Severe Weather on mobile